createdAt,value
2024-02-21T00:00:40.661Z,84.03
2024-02-21T00:03:28.748Z,84.40
2024-02-21T00:05:56.719Z,84.91
2024-02-21T00:08:24.641Z,85.08
2024-02-21T00:10:52.829Z,85.46
2024-02-21T00:13:21.160Z,85.51
2024-02-21T00:15:49.079Z,85.61
2024-02-21T00:18:17.000Z,85.26
2024-02-21T00:20:44.996Z,84.75
2024-02-21T00:23:13.201Z,84.12
2024-02-21T00:25:41.136Z,83.71
2024-02-21T00:28:09.116Z,83.81
2024-02-21T00:30:39.266Z,83.46
2024-02-21T00:33:07.410Z,82.77
2024-02-21T00:35:35.515Z,82.49
2024-02-21T00:38:04.625Z,82.35
2024-02-21T00:40:33.017Z,82.52
2024-02-21T00:43:01.090Z,82.82
2024-02-21T00:45:29.049Z,82.30
2024-02-21T00:47:57.311Z,81.87
2024-02-21T00:50:25.411Z,81.57
2024-02-21T00:52:53.476Z,81.87
2024-02-21T00:55:21.647Z,82.55
2024-02-21T00:57:49.738Z,82.49
2024-02-21T01:00:18.169Z,82.42
2024-02-21T01:02:46.001Z,82.29
2024-02-21T01:05:13.978Z,82.02
2024-02-21T01:07:42.247Z,81.76
2024-02-21T01:10:10.751Z,81.86
2024-02-21T01:12:38.679Z,81.91
2024-02-21T01:15:07.226Z,81.83
2024-02-21T01:17:35.488Z,81.82
2024-02-21T01:20:04.405Z,81.74
2024-02-21T01:22:32.770Z,81.54
2024-02-21T01:25:01.085Z,81.07
2024-02-21T01:27:29.122Z,80.74
2024-02-21T01:29:57.505Z,80.32
2024-02-21T01:32:25.791Z,80.56
2024-02-21T01:34:54.155Z,80.67
2024-02-21T01:37:22.919Z,80.87
2024-02-21T01:39:51.772Z,80.79
2024-02-21T01:42:19.880Z,80.77
2024-02-21T01:44:47.695Z,81.02
2024-02-21T01:47:16.054Z,81.00
2024-02-21T01:49:44.581Z,81.02
2024-02-21T01:52:15.428Z,80.95
2024-02-21T01:54:44.003Z,80.92
2024-02-21T01:57:12.557Z,81.07
2024-02-21T01:59:40.650Z,81.38
2024-02-21T02:02:08.897Z,81.65
2024-02-21T02:04:40.072Z,81.68
2024-02-21T02:07:08.328Z,81.83
2024-02-21T02:09:36.431Z,82.09
2024-02-21T02:12:04.962Z,82.32
2024-02-21T02:14:32.841Z,82.34
2024-02-21T02:17:00.707Z,82.33
2024-02-21T02:19:28.957Z,82.42
2024-02-21T02:22:05.893Z,82.51
2024-02-21T02:24:34.241Z,82.64
2024-02-21T02:27:02.104Z,82.95
2024-02-21T02:29:29.935Z,83.03
2024-02-21T02:31:58.100Z,82.85
2024-02-21T02:34:26.047Z,82.75
2024-02-21T02:36:55.948Z,82.75
2024-02-21T02:39:24.317Z,82.68
2024-02-21T02:41:52.223Z,82.24
2024-02-21T02:44:20.087Z,82.55
2024-02-21T02:46:48.227Z,83.29
2024-02-21T02:49:16.344Z,83.66
2024-02-21T02:51:45.006Z,83.79
2024-02-21T02:54:13.337Z,83.73
2024-02-21T02:56:41.213Z,83.90
2024-02-21T02:59:09.390Z,84.23
2024-02-21T03:01:37.499Z,84.40
2024-02-21T03:04:06.077Z,84.40
2024-02-21T03:06:34.390Z,84.40
2024-02-21T03:09:02.376Z,84.12
2024-02-21T03:11:30.678Z,83.99
2024-02-21T03:13:59.745Z,84.19
2024-02-21T03:16:27.869Z,84.38
2024-02-21T03:18:55.907Z,84.50
2024-02-21T03:21:23.898Z,84.33
2024-02-21T03:23:51.751Z,84.56
2024-02-21T03:26:19.817Z,84.74
2024-02-21T03:28:48.030Z,85.13
2024-02-21T03:31:16.148Z,85.93
2024-02-21T03:33:45.176Z,86.70
2024-02-21T03:36:18.556Z,86.74
2024-02-21T03:38:46.491Z,86.89
2024-02-21T03:41:14.750Z,87.50
2024-02-21T03:43:42.554Z,87.68
2024-02-21T03:46:11.063Z,87.79
2024-02-21T03:48:39.108Z,87.92
2024-02-21T03:51:07.302Z,88.27
2024-02-21T03:53:35.459Z,88.42
2024-02-21T03:56:05.513Z,88.72
2024-02-21T03:58:34.055Z,88.93
2024-02-21T04:01:03.003Z,89.18
2024-02-21T04:03:32.013Z,89.37
2024-02-21T04:06:00.337Z,89.34
2024-02-21T04:08:28.622Z,89.86
2024-02-21T04:10:56.508Z,90.05
2024-02-21T04:13:24.918Z,89.72
2024-02-21T04:15:52.938Z,89.47
2024-02-21T04:18:21.073Z,89.57
2024-02-21T04:20:49.189Z,89.56
2024-02-21T04:23:17.452Z,89.42
2024-02-21T04:25:45.900Z,89.15
2024-02-21T04:28:14.074Z,88.71
2024-02-21T04:30:42.398Z,88.41
2024-02-21T04:33:10.591Z,88.16
2024-02-21T04:35:39.469Z,87.91
2024-02-21T04:38:07.790Z,88.28
2024-02-21T04:40:35.993Z,87.95
2024-02-21T04:43:04.221Z,87.48
2024-02-21T04:45:32.148Z,87.01
2024-02-21T04:48:00.234Z,86.79
2024-02-21T04:50:28.725Z,86.58
2024-02-21T04:52:57.036Z,86.20
2024-02-21T04:55:25.322Z,85.89
2024-02-21T04:57:53.667Z,86.08
2024-02-21T05:00:21.644Z,85.92
2024-02-21T05:02:49.516Z,86.07
2024-02-21T05:05:18.240Z,85.48
2024-02-21T05:07:46.535Z,85.44
2024-02-21T05:10:14.747Z,85.77
2024-02-21T05:12:42.803Z,85.83
2024-02-21T05:15:11.581Z,85.84
2024-02-21T05:17:39.826Z,85.64
2024-02-21T05:20:08.531Z,85.92
2024-02-21T05:22:36.835Z,86.07
2024-02-21T05:25:05.046Z,85.64
2024-02-21T05:27:32.878Z,85.21
2024-02-21T05:30:00.681Z,85.19
2024-02-21T05:32:29.299Z,85.08
2024-02-21T05:34:59.623Z,85.05
2024-02-21T05:37:27.947Z,85.16
2024-02-21T05:39:56.183Z,84.94
2024-02-21T05:42:24.078Z,85.08
2024-02-21T05:44:51.970Z,85.68
2024-02-21T05:47:21.727Z,86.20
2024-02-21T05:49:50.308Z,86.54
2024-02-21T05:52:18.327Z,86.80
2024-02-21T05:54:48.276Z,86.92
2024-02-21T05:57:20.601Z,87.14
2024-02-21T05:59:48.682Z,87.45
2024-02-21T06:02:16.590Z,87.51
2024-02-21T06:04:45.646Z,87.83
2024-02-21T06:07:14.539Z,87.88
2024-02-21T06:09:42.776Z,88.14
2024-02-21T06:12:10.647Z,88.33
2024-02-21T06:14:38.971Z,88.72
2024-02-21T06:17:06.938Z,89.06
2024-02-21T06:19:35.018Z,89.02
2024-02-21T06:22:03.656Z,88.77
2024-02-21T06:24:31.625Z,88.69
2024-02-21T06:26:59.783Z,88.75
2024-02-21T06:29:27.643Z,89.01
2024-02-21T06:31:55.667Z,89.39
2024-02-21T06:34:25.336Z,90.15
2024-02-21T06:36:53.729Z,90.25
2024-02-21T06:39:23.013Z,90.49
2024-02-21T06:41:51.928Z,90.94
2024-02-21T06:44:20.179Z,91.42
2024-02-21T06:46:48.423Z,91.36
2024-02-21T06:49:19.518Z,91.20
2024-02-21T06:51:47.802Z,91.23
2024-02-21T06:54:16.200Z,91.72
2024-02-21T06:56:44.040Z,91.83
2024-02-21T06:59:12.541Z,91.48
2024-02-21T07:01:40.468Z,91.36
2024-02-21T07:04:08.622Z,91.60
2024-02-21T07:06:36.925Z,91.29
2024-02-21T07:09:05.199Z,90.97
2024-02-21T07:11:33.475Z,91.50
2024-02-21T07:14:02.010Z,91.61
2024-02-21T07:16:30.300Z,91.51
2024-02-21T07:18:59.592Z,91.13
2024-02-21T07:21:27.605Z,90.80
2024-02-21T07:23:55.473Z,90.47
2024-02-21T07:26:23.861Z,89.94
2024-02-21T07:28:52.108Z,89.33
2024-02-21T07:31:20.283Z,89.31
2024-02-21T07:33:48.402Z,89.14
2024-02-21T07:36:16.963Z,89.00
2024-02-21T07:38:44.835Z,88.82
2024-02-21T07:41:12.756Z,88.61
2024-02-21T07:43:41.028Z,88.30
2024-02-21T07:46:09.298Z,89.11
2024-02-21T07:48:37.174Z,87.57
2024-02-21T07:51:05.456Z,87.90
2024-02-21T07:53:33.368Z,87.72
2024-02-21T07:56:01.728Z,87.19
2024-02-21T07:58:29.664Z,86.70
2024-02-21T08:00:57.599Z,86.45
2024-02-21T08:03:27.070Z,85.96
2024-02-21T08:05:55.686Z,85.49
2024-02-21T08:08:23.675Z,84.85
2024-02-21T08:10:51.838Z,84.49
2024-02-21T08:13:19.906Z,83.69
2024-02-21T08:15:47.999Z,82.97
2024-02-21T08:18:15.999Z,81.82
2024-02-21T08:20:44.336Z,81.39
2024-02-21T08:23:12.401Z,80.62
2024-02-21T08:25:40.447Z,80.40
2024-02-21T08:28:09.501Z,79.84
2024-02-21T08:30:37.534Z,79.77
2024-02-21T08:33:05.609Z,79.47
2024-02-21T08:35:33.771Z,79.52
2024-02-21T08:38:02.064Z,79.61
2024-02-21T08:40:30.279Z,79.60
2024-02-21T08:42:58.392Z,79.74
2024-02-21T08:45:26.255Z,79.36
2024-02-21T08:47:54.382Z,79.05
2024-02-21T08:50:28.042Z,79.12
2024-02-21T08:52:58.204Z,79.19
2024-02-21T08:55:27.031Z,79.01
2024-02-21T08:57:55.301Z,78.84
2024-02-21T09:00:28.847Z,79.08
2024-02-21T09:02:57.722Z,79.40
2024-02-21T09:05:26.864Z,78.95
2024-02-21T09:07:55.364Z,78.41
2024-02-21T09:10:23.419Z,78.28
2024-02-21T09:12:51.615Z,77.90
2024-02-21T09:15:19.491Z,77.24
2024-02-21T09:17:47.753Z,77.03
2024-02-21T09:20:18.069Z,76.83
2024-02-21T09:22:46.423Z,76.94
2024-02-21T09:25:14.714Z,76.43
2024-02-21T09:27:42.821Z,76.20
2024-02-21T09:30:11.284Z,75.33
2024-02-21T09:32:40.108Z,75.19
2024-02-21T09:35:08.693Z,74.69
2024-02-21T09:37:37.153Z,74.63
2024-02-21T09:40:05.638Z,74.26
2024-02-21T09:42:40.313Z,74.22
2024-02-21T09:45:26.977Z,72.92
2024-02-21T09:48:07.143Z,72.17
2024-02-21T09:50:37.298Z,71.51
2024-02-21T09:53:06.265Z,71.67
2024-02-21T09:55:35.795Z,71.36
2024-02-21T09:58:04.656Z,70.96
2024-02-21T10:00:32.849Z,70.49
2024-02-21T10:03:00.926Z,70.21
2024-02-21T10:05:29.372Z,69.53
2024-02-21T10:07:57.521Z,69.30
2024-02-21T10:10:25.438Z,68.17
2024-02-21T10:12:55.908Z,67.56
2024-02-21T10:15:25.280Z,67.47
2024-02-21T10:18:01.096Z,66.47
2024-02-21T10:20:29.278Z,65.76
2024-02-21T10:23:04.781Z,64.13
2024-02-21T10:25:33.179Z,64.53
2024-02-21T10:28:01.579Z,64.37
2024-02-21T10:30:29.903Z,63.96
2024-02-21T10:32:58.953Z,63.61
2024-02-21T10:35:34.275Z,62.86
2024-02-21T10:38:02.437Z,62.03
2024-02-21T10:40:32.261Z,61.94
2024-02-21T10:43:01.354Z,62.30
2024-02-21T10:45:35.203Z,62.26
2024-02-21T10:48:10.015Z,60.63
2024-02-21T10:50:58.430Z,58.69
2024-02-21T10:53:27.559Z,57.92
2024-02-21T10:56:03.089Z,57.31
2024-02-21T10:58:32.262Z,56.81
2024-02-21T11:01:00.959Z,57.72
2024-02-21T11:03:29.169Z,56.07
2024-02-21T11:05:57.173Z,56.15
2024-02-21T11:08:26.679Z,55.54
2024-02-21T11:10:58.131Z,54.73
2024-02-21T11:13:34.285Z,56.39
2024-02-21T11:16:12.218Z,53.12
2024-02-21T11:18:40.488Z,50.95
2024-02-21T11:21:10.440Z,49.09
2024-02-21T11:23:38.325Z,48.47
2024-02-21T11:26:10.344Z,47.21
2024-02-21T11:28:39.120Z,46.42
2024-02-21T11:31:17.254Z,45.62
2024-02-21T11:33:48.587Z,45.40
2024-02-21T11:36:29.547Z,46.16
2024-02-21T11:39:05.545Z,45.36
2024-02-21T11:41:33.591Z,43.53
2024-02-21T11:44:01.717Z,42.37
2024-02-21T11:46:29.858Z,43.02
2024-02-21T11:49:01.524Z,43.26
2024-02-21T11:51:29.871Z,43.49
2024-02-21T11:54:01.982Z,44.13
2024-02-21T11:56:30.759Z,43.79
2024-02-21T11:59:00.507Z,43.22
2024-02-21T12:01:28.888Z,40.15
2024-02-21T12:03:57.465Z,39.95
2024-02-21T12:06:25.763Z,40.71
2024-02-21T12:08:55.632Z,41.38
2024-02-21T12:11:24.116Z,40.67
2024-02-21T12:14:02.712Z,40.49
2024-02-21T12:16:34.359Z,40.20
2024-02-21T12:19:03.491Z,41.84
2024-02-21T12:21:33.870Z,42.60
2024-02-21T12:24:12.319Z,42.33
2024-02-21T12:26:40.233Z,42.96
2024-02-21T12:29:10.624Z,41.86
2024-02-21T12:31:39.359Z,40.16
2024-02-21T12:34:07.834Z,40.07
2024-02-21T12:36:37.351Z,39.37
2024-02-21T12:39:05.971Z,38.20
2024-02-21T12:41:34.760Z,37.13
2024-02-21T12:44:02.679Z,37.35
2024-02-21T12:46:30.941Z,37.41
2024-02-21T12:48:58.927Z,37.72
2024-02-21T12:51:27.172Z,36.42
2024-02-21T12:53:55.885Z,35.08
2024-02-21T12:56:23.763Z,34.01
2024-02-21T12:58:52.191Z,33.17
2024-02-21T13:01:20.342Z,31.17
2024-02-21T13:03:48.448Z,30.60
2024-02-21T13:06:16.854Z,30.18
2024-02-21T13:08:45.815Z,29.83
2024-02-21T13:11:14.294Z,29.97
2024-02-21T13:13:42.309Z,30.99
2024-02-21T13:16:11.494Z,31.75
2024-02-21T13:18:40.558Z,33.13
2024-02-21T13:21:08.637Z,32.69
2024-02-21T13:23:36.597Z,33.04
2024-02-21T13:26:04.794Z,34.50
2024-02-21T13:28:33.056Z,34.52
2024-02-21T13:31:01.033Z,35.32
2024-02-21T13:33:30.230Z,36.13
2024-02-21T13:35:58.593Z,36.55
2024-02-21T13:38:26.963Z,37.67
2024-02-21T13:40:55.198Z,38.13
2024-02-21T13:43:23.423Z,39.21
2024-02-21T13:45:57.234Z,40.42
2024-02-21T13:48:26.061Z,41.72
2024-02-21T13:50:54.157Z,42.05
2024-02-21T13:53:22.695Z,42.79
2024-02-21T13:55:51.332Z,42.96
2024-02-21T13:58:19.540Z,42.45
2024-02-21T14:00:47.673Z,44.32
2024-02-21T14:03:15.639Z,45.37
2024-02-21T14:05:43.821Z,46.19
2024-02-21T14:08:12.297Z,46.96
2024-02-21T14:10:40.416Z,47.64
2024-02-21T14:13:08.386Z,46.42
2024-02-21T14:15:37.833Z,47.99
2024-02-21T14:18:10.132Z,48.44
2024-02-21T14:20:38.666Z,48.66
2024-02-21T14:23:06.838Z,49.54
2024-02-21T14:25:35.520Z,49.81
2024-02-21T14:28:03.724Z,50.51
2024-02-21T14:30:31.625Z,50.67
2024-02-21T14:32:59.723Z,50.80
2024-02-21T14:35:27.833Z,50.85
2024-02-21T14:37:58.406Z,50.88
2024-02-21T14:40:26.737Z,51.05
2024-02-21T14:42:54.872Z,50.99
2024-02-21T14:45:24.251Z,51.72
2024-02-21T14:47:52.312Z,51.68
2024-02-21T14:50:20.627Z,51.12
2024-02-21T14:52:48.671Z,50.48
2024-02-21T14:55:16.839Z,51.27
2024-02-21T14:57:45.782Z,51.61
2024-02-21T15:00:14.690Z,51.82
2024-02-21T15:02:42.725Z,52.41
2024-02-21T15:05:11.628Z,53.21
2024-02-21T15:07:39.804Z,53.74
2024-02-21T15:10:08.042Z,53.28
2024-02-21T15:12:35.950Z,53.17
2024-02-21T15:15:05.478Z,53.53
2024-02-21T15:17:33.333Z,54.24
2024-02-21T15:20:02.712Z,53.58
2024-02-21T15:22:31.056Z,53.76
2024-02-21T15:24:59.168Z,53.94
2024-02-21T15:27:29.029Z,54.44
2024-02-21T15:29:58.484Z,54.45
2024-02-21T15:32:26.850Z,54.25
2024-02-21T15:34:55.156Z,52.66
2024-02-21T15:37:23.339Z,52.78
2024-02-21T15:39:51.814Z,53.47
2024-02-21T15:42:20.075Z,54.40
2024-02-21T15:44:48.361Z,55.06
2024-02-21T15:47:19.058Z,55.22
2024-02-21T15:49:47.605Z,55.69
2024-02-21T15:52:15.607Z,56.37
2024-02-21T15:54:43.834Z,53.45
2024-02-21T15:57:11.998Z,54.76
2024-02-21T15:59:40.780Z,56.49
2024-02-21T16:02:08.976Z,57.46
2024-02-21T16:04:37.173Z,59.34
2024-02-21T16:07:05.861Z,59.86
2024-02-21T16:09:33.770Z,60.99
2024-02-21T16:12:06.674Z,63.50
2024-02-21T16:14:34.900Z,63.58
2024-02-21T16:17:02.830Z,62.98
2024-02-21T16:19:31.133Z,64.18
2024-02-21T16:21:59.810Z,65.20
2024-02-21T16:24:28.326Z,64.49
2024-02-21T16:26:56.205Z,64.82
2024-02-21T16:29:24.031Z,64.92
2024-02-21T16:31:52.151Z,64.69
2024-02-21T16:34:20.338Z,64.51
2024-02-21T16:36:48.484Z,64.56
2024-02-21T16:39:16.434Z,64.17
2024-02-21T16:41:44.334Z,64.69
2024-02-21T16:44:12.291Z,64.67
2024-02-21T16:46:40.509Z,64.91
2024-02-21T16:49:08.810Z,65.00
2024-02-21T16:51:37.240Z,64.89
2024-02-21T16:54:09.421Z,65.07
2024-02-21T16:56:37.854Z,65.25
2024-02-21T16:59:06.058Z,65.40
2024-02-21T17:01:40.717Z,65.43
2024-02-21T17:04:09.674Z,65.07
2024-02-21T17:06:38.218Z,65.31
2024-02-21T17:09:06.253Z,65.44
2024-02-21T17:11:35.609Z,65.67
2024-02-21T17:14:04.778Z,66.63
2024-02-21T17:16:33.557Z,67.55
2024-02-21T17:19:01.616Z,68.22
2024-02-21T17:21:30.217Z,68.65
2024-02-21T17:23:58.360Z,68.96
2024-02-21T17:26:27.491Z,69.41
2024-02-21T17:28:56.196Z,70.01
2024-02-21T17:31:24.544Z,70.37
2024-02-21T17:33:52.544Z,70.67
2024-02-21T17:36:21.370Z,71.54
2024-02-21T17:38:52.066Z,71.76
2024-02-21T17:41:20.405Z,72.14
2024-02-21T17:43:48.418Z,72.52
2024-02-21T17:46:17.087Z,72.64
2024-02-21T17:48:46.066Z,72.69
2024-02-21T17:51:14.192Z,73.36
2024-02-21T17:53:42.258Z,73.23
2024-02-21T17:56:11.113Z,73.28
2024-02-21T17:58:40.087Z,73.25
2024-02-21T18:01:08.307Z,73.47
2024-02-21T18:03:36.935Z,73.58
2024-02-21T18:06:05.641Z,73.66
2024-02-21T18:08:34.424Z,73.25
2024-02-21T18:11:03.217Z,73.33
2024-02-21T18:13:32.425Z,73.58
2024-02-21T18:16:03.670Z,73.52
2024-02-21T18:18:32.238Z,73.59
2024-02-21T18:21:00.377Z,73.84
2024-02-21T18:23:31.138Z,73.66
2024-02-21T18:26:00.818Z,73.95
2024-02-21T18:28:30.277Z,74.33
2024-02-21T18:30:58.712Z,74.54
2024-02-21T18:33:27.194Z,74.69
2024-02-21T18:35:55.214Z,74.67
2024-02-21T18:38:23.526Z,74.95
2024-02-21T18:40:51.625Z,75.16
2024-02-21T18:43:20.069Z,75.40
2024-02-21T18:45:48.461Z,75.54
2024-02-21T18:48:16.718Z,75.81
2024-02-21T18:50:44.866Z,75.80
2024-02-21T18:53:12.897Z,75.62
2024-02-21T18:55:41.100Z,75.71
2024-02-21T18:58:09.022Z,76.02
2024-02-21T19:00:37.138Z,76.07
2024-02-21T19:03:05.365Z,76.03
2024-02-21T19:05:34.462Z,75.89
2024-02-21T19:08:02.685Z,75.40
2024-02-21T19:10:31.159Z,75.53
2024-02-21T19:12:59.297Z,75.49
2024-02-21T19:15:28.027Z,75.20
2024-02-21T19:17:55.962Z,75.42
2024-02-21T19:20:26.612Z,75.48
2024-02-21T19:22:54.828Z,75.23
2024-02-21T19:25:24.199Z,74.73
2024-02-21T19:27:52.338Z,74.63
2024-02-21T19:30:22.385Z,75.07
2024-02-21T19:32:50.649Z,75.70
2024-02-21T19:35:18.754Z,76.03
2024-02-21T19:37:47.960Z,76.05
2024-02-21T19:40:19.919Z,75.93
2024-02-21T19:42:47.975Z,75.73
2024-02-21T19:45:16.011Z,75.43
2024-02-21T19:47:45.209Z,75.18
2024-02-21T19:50:19.259Z,74.91
2024-02-21T19:52:47.340Z,74.64
2024-02-21T19:55:18.719Z,74.50
2024-02-21T19:57:49.652Z,74.28
2024-02-21T20:00:18.181Z,73.83
2024-02-21T20:02:46.414Z,73.57
2024-02-21T20:05:14.544Z,73.45
2024-02-21T20:07:42.919Z,73.53
2024-02-21T20:10:12.873Z,73.88
2024-02-21T20:12:41.341Z,74.28
2024-02-21T20:15:09.941Z,74.63
2024-02-21T20:17:38.155Z,74.02
2024-02-21T20:20:07.609Z,73.99
2024-02-21T20:22:36.777Z,73.76
2024-02-21T20:25:05.429Z,73.66
2024-02-21T20:27:33.752Z,73.25
2024-02-21T20:30:01.881Z,73.28
2024-02-21T20:32:29.970Z,73.35
2024-02-21T20:34:58.527Z,73.47
2024-02-21T20:37:27.087Z,73.78
2024-02-21T20:39:55.111Z,73.33
2024-02-21T20:42:25.667Z,73.28
2024-02-21T20:44:55.441Z,73.58
2024-02-21T20:47:25.039Z,73.92
2024-02-21T20:49:58.784Z,73.70
2024-02-21T20:52:27.374Z,74.07
2024-02-21T20:54:55.427Z,74.52
2024-02-21T20:57:23.406Z,74.88
2024-02-21T20:59:51.665Z,74.87
2024-02-21T21:02:19.614Z,74.84
2024-02-21T21:04:47.726Z,74.99
2024-02-21T21:07:16.268Z,75.02
2024-02-21T21:09:44.277Z,74.85
2024-02-21T21:12:12.506Z,74.58
2024-02-21T21:14:40.698Z,74.72
2024-02-21T21:17:08.620Z,74.89
2024-02-21T21:19:36.737Z,74.55
2024-02-21T21:22:07.473Z,74.03
2024-02-21T21:24:35.514Z,74.16
2024-02-21T21:27:04.724Z,74.14
2024-02-21T21:29:35.446Z,74.40
2024-02-21T21:32:03.775Z,74.33
2024-02-21T21:34:32.132Z,74.91
2024-02-21T21:37:00.301Z,75.03
2024-02-21T21:39:28.890Z,75.19
2024-02-21T21:41:57.173Z,75.34
2024-02-21T21:44:25.036Z,75.65
2024-02-21T21:46:53.171Z,75.63
2024-02-21T21:49:21.190Z,75.58
2024-02-21T21:51:49.436Z,75.43
2024-02-21T21:54:17.731Z,75.41
2024-02-21T21:56:45.900Z,75.04
2024-02-21T21:59:14.198Z,75.39
2024-02-21T22:01:44.496Z,75.63
2024-02-21T22:04:12.558Z,75.70
2024-02-21T22:06:41.605Z,75.85
2024-02-21T22:09:10.522Z,76.22
2024-02-21T22:11:39.381Z,76.33
2024-02-21T22:14:10.053Z,77.05
2024-02-21T22:16:38.790Z,77.74
2024-02-21T22:19:06.932Z,77.95
2024-02-21T22:21:35.234Z,78.24
2024-02-21T22:24:03.460Z,78.42
2024-02-21T22:26:31.617Z,77.91
2024-02-21T22:28:59.860Z,77.59
2024-02-21T22:31:27.979Z,77.44
2024-02-21T22:33:58.960Z,77.53
2024-02-21T22:36:27.175Z,77.60
2024-02-21T22:38:55.542Z,77.90
2024-02-21T22:41:24.404Z,77.78
2024-02-21T22:43:52.627Z,77.61
2024-02-21T22:46:20.964Z,77.30
2024-02-21T22:48:49.152Z,77.42
2024-02-21T22:51:19.718Z,78.01
2024-02-21T22:53:47.896Z,78.43
2024-02-21T22:56:16.093Z,78.03
2024-02-21T22:58:44.182Z,78.12
2024-02-21T23:01:13.758Z,78.11
2024-02-21T23:03:42.663Z,78.23
2024-02-21T23:06:10.918Z,78.41
2024-02-21T23:08:39.700Z,78.78
2024-02-21T23:11:08.253Z,78.85
2024-02-21T23:13:36.317Z,79.01
2024-02-21T23:16:05.108Z,79.25
2024-02-21T23:18:33.135Z,79.20
2024-02-21T23:21:01.146Z,79.31
2024-02-21T23:23:29.126Z,79.03
2024-02-21T23:25:57.429Z,78.61
2024-02-21T23:28:25.462Z,78.45
2024-02-21T23:30:53.525Z,77.86
2024-02-21T23:33:21.947Z,77.75
2024-02-21T23:35:50.600Z,77.81
2024-02-21T23:38:18.830Z,77.72
2024-02-21T23:40:47.278Z,77.94
2024-02-21T23:43:15.852Z,77.95
2024-02-21T23:45:44.099Z,77.70
2024-02-21T23:48:14.063Z,77.46
2024-02-21T23:50:42.403Z,77.54
2024-02-21T23:53:10.663Z,77.33
2024-02-21T23:55:38.678Z,77.04
2024-02-21T23:58:06.694Z,77.21
